createdAt,value
2018-12-26T00:00:27.157Z,16.83
2018-12-26T00:02:55.879Z,16.47
2018-12-26T00:05:24.327Z,17.67
2018-12-26T00:07:53.150Z,17.43
2018-12-26T00:10:21.572Z,17.33
2018-12-26T00:12:49.999Z,16.67
2018-12-26T00:15:18.423Z,17.53
2018-12-26T00:17:46.837Z,17.00
2018-12-26T00:20:15.261Z,17.20
2018-12-26T00:22:43.673Z,17.83
2018-12-26T00:25:12.142Z,17.97
2018-12-26T00:27:40.366Z,18.07
2018-12-26T00:30:08.805Z,16.73
2018-12-26T00:32:37.225Z,17.83
2018-12-26T00:35:05.932Z,18.30
2018-12-26T00:37:34.357Z,16.60
2018-12-26T00:40:02.800Z,17.37
2018-12-26T00:42:31.218Z,18.20
2018-12-26T00:44:59.652Z,16.65
2018-12-26T00:47:27.736Z,17.53
2018-12-26T00:49:55.832Z,17.05
2018-12-26T00:52:24.248Z,16.87
2018-12-26T00:54:52.676Z,17.03
2018-12-26T00:57:21.445Z,17.40
2018-12-26T00:59:50.127Z,18.48
2018-12-26T01:02:18.536Z,17.90
2018-12-26T01:04:47.033Z,17.87
2018-12-26T01:07:15.460Z,18.27
2018-12-26T01:09:43.914Z,16.17
2018-12-26T01:12:12.380Z,17.27
2018-12-26T01:14:40.811Z,18.23
2018-12-26T01:17:08.898Z,17.93
2018-12-26T01:19:37.330Z,18.90
2018-12-26T01:22:05.744Z,17.87
2018-12-26T01:24:34.176Z,18.80
2018-12-26T01:27:02.588Z,19.33
2018-12-26T01:29:31.020Z,18.93
2018-12-26T01:31:59.448Z,18.37
2018-12-26T01:34:27.874Z,18.33
2018-12-26T01:36:56.290Z,19.23
2018-12-26T01:39:24.963Z,19.07
2018-12-26T01:41:53.388Z,19.37
2018-12-26T01:44:21.820Z,17.17
2018-12-26T01:46:50.232Z,18.27
2018-12-26T01:49:18.652Z,18.87
2018-12-26T01:51:47.080Z,19.32
2018-12-26T01:54:15.174Z,19.17
2018-12-26T01:56:43.616Z,20.10
2018-12-26T01:59:12.357Z,19.63
2018-12-26T02:01:40.789Z,18.82
2018-12-26T02:04:09.216Z,18.87
2018-12-26T02:06:37.657Z,17.42
2018-12-26T02:09:07.117Z,17.92
2018-12-26T02:11:35.550Z,19.40
2018-12-26T02:14:03.984Z,17.27
2018-12-26T02:16:32.416Z,17.95
2018-12-26T02:19:01.119Z,17.45
2018-12-26T02:21:29.548Z,18.20
2018-12-26T02:23:57.969Z,19.40
2018-12-26T02:26:26.405Z,18.70
2018-12-26T02:28:54.825Z,18.52
2018-12-26T02:31:23.290Z,16.97
2018-12-26T02:33:52.010Z,17.92
2018-12-26T02:36:20.446Z,15.95
2018-12-26T02:38:48.533Z,17.55
2018-12-26T02:41:16.974Z,17.00
2018-12-26T02:43:45.393Z,17.80
2018-12-26T02:46:13.829Z,17.37
2018-12-26T02:48:42.261Z,17.90
2018-12-26T02:51:10.687Z,16.75
2018-12-26T02:53:39.575Z,17.48
2018-12-26T02:56:07.724Z,18.20
2018-12-26T02:58:36.121Z,18.32
2018-12-26T03:01:04.557Z,17.92
2018-12-26T03:03:33.268Z,18.17
2018-12-26T03:06:02.056Z,17.57
2018-12-26T03:08:30.483Z,17.10
2018-12-26T03:10:58.965Z,16.32
2018-12-26T03:13:27.468Z,16.65
2018-12-26T03:15:55.570Z,15.90
2018-12-26T03:18:23.998Z,17.25
2018-12-26T03:20:52.432Z,16.82
2018-12-26T03:23:20.867Z,15.15
2018-12-26T03:25:49.300Z,15.68
2018-12-26T03:28:17.402Z,15.60
2018-12-26T03:30:45.831Z,15.45
2018-12-26T03:33:14.254Z,15.95
2018-12-26T03:35:43.012Z,15.65
2018-12-26T03:38:11.434Z,15.95
2018-12-26T03:40:39.881Z,16.00
2018-12-26T03:43:08.376Z,16.07
2018-12-26T03:45:36.829Z,16.20
2018-12-26T03:48:04.928Z,15.13
2018-12-26T03:50:33.025Z,14.23
2018-12-26T03:53:01.605Z,16.60
2018-12-26T03:55:29.738Z,16.93
2018-12-26T03:57:58.245Z,16.10
2018-12-26T04:00:26.674Z,16.70
2018-12-26T04:02:55.108Z,16.25
2018-12-26T04:05:23.551Z,15.15
2018-12-26T04:07:52.057Z,15.53
2018-12-26T04:10:20.839Z,17.00
2018-12-26T04:12:49.332Z,16.73
2018-12-26T04:15:17.757Z,18.20
2018-12-26T04:17:46.196Z,17.73
2018-12-26T04:20:14.285Z,17.25
2018-12-26T04:22:42.728Z,17.30
2018-12-26T04:25:11.298Z,17.05
2018-12-26T04:27:39.729Z,17.75
2018-12-26T04:30:09.890Z,16.37
2018-12-26T04:32:38.326Z,17.75
2018-12-26T04:35:06.754Z,18.15
2018-12-26T04:37:34.848Z,21.12
2018-12-26T04:40:03.820Z,17.57
2018-12-26T04:42:32.259Z,16.55
2018-12-26T04:45:00.685Z,16.85
2018-12-26T04:47:28.783Z,16.48
2018-12-26T04:49:56.904Z,15.55
2018-12-26T04:52:25.329Z,18.73
2018-12-26T04:54:53.753Z,17.57
2018-12-26T04:57:24.981Z,16.67
2018-12-26T04:59:52.300Z,16.45
2018-12-26T05:02:20.728Z,16.57
2018-12-26T05:04:48.817Z,18.05
2018-12-26T05:07:17.257Z,17.65
2018-12-26T05:09:45.677Z,17.70
2018-12-26T05:12:14.392Z,18.23
2018-12-26T05:14:42.488Z,17.25
2018-12-26T05:17:09.750Z,16.93
2018-12-26T05:19:57.507Z,16.67
2018-12-26T05:22:45.278Z,16.97
2018-12-26T05:25:33.033Z,16.32
2018-12-26T05:28:20.809Z,17.27
2018-12-26T05:31:08.578Z,18.05
2018-12-26T05:33:56.348Z,17.42
2018-12-26T05:36:44.432Z,15.20
2018-12-26T05:39:32.188Z,14.63
2018-12-26T05:42:19.956Z,13.95
2018-12-26T05:45:07.731Z,14.68
2018-12-26T05:47:55.520Z,15.18
2018-12-26T05:50:43.272Z,14.98
2018-12-26T05:53:31.044Z,14.75
2018-12-26T05:56:18.807Z,14.43
2018-12-26T05:59:06.577Z,16.82
2018-12-26T06:01:54.356Z,15.83
2018-12-26T06:04:42.117Z,14.03
2018-12-26T06:07:29.888Z,15.70
2018-12-26T06:10:17.657Z,15.08
2018-12-26T06:13:05.435Z,14.68
2018-12-26T06:15:53.189Z,13.28
2018-12-26T06:18:40.624Z,14.87
2018-12-26T06:21:28.423Z,13.38
2018-12-26T06:24:16.178Z,15.05
2018-12-26T06:27:03.956Z,14.50
2018-12-26T06:29:51.724Z,14.07
2018-12-26T06:32:39.595Z,14.00
2018-12-26T06:35:27.030Z,14.68
2018-12-26T06:38:08.114Z,13.43
2018-12-26T06:40:49.037Z,14.03
2018-12-26T06:43:30.057Z,14.58
2018-12-26T06:46:10.985Z,14.60
2018-12-26T06:48:51.870Z,13.25
2018-12-26T06:51:32.109Z,13.70
2018-12-26T06:54:12.926Z,13.28
2018-12-26T06:56:53.489Z,14.43
2018-12-26T07:02:46.586Z,13.43
2018-12-26T07:05:27.061Z,13.93
2018-12-26T07:08:07.635Z,14.40
2018-12-26T07:10:48.280Z,13.68
2018-12-26T07:13:28.848Z,13.05
2018-12-26T07:16:09.733Z,14.33
2018-12-26T07:18:50.508Z,13.53
2018-12-26T07:21:31.448Z,14.03
2018-12-26T07:24:12.197Z,12.65
2018-12-26T07:26:52.901Z,13.72
2018-12-26T07:29:33.801Z,14.07
2018-12-26T07:32:14.885Z,15.20
2018-12-26T07:34:55.732Z,14.45
2018-12-26T07:37:36.689Z,15.28
2018-12-26T07:40:17.197Z,14.93
2018-12-26T07:42:57.848Z,15.95
2018-12-26T07:45:38.715Z,14.70
2018-12-26T07:48:19.741Z,14.55
2018-12-26T07:51:00.334Z,14.45
2018-12-26T07:53:40.850Z,12.70
2018-12-26T07:56:21.585Z,14.55
2018-12-26T08:02:00.513Z,14.05
2018-12-26T08:04:40.980Z,13.10
2018-12-26T08:07:21.653Z,12.93
2018-12-26T08:10:02.953Z,11.93
2018-12-26T08:12:43.585Z,12.95
2018-12-26T08:15:24.229Z,13.10
2018-12-26T08:18:04.877Z,12.87
2018-12-26T08:20:45.317Z,12.60
2018-12-26T08:23:26.012Z,13.05
2018-12-26T08:26:06.622Z,14.13
2018-12-26T08:28:47.560Z,13.30
2018-12-26T08:31:28.649Z,14.55
2018-12-26T08:34:09.672Z,14.20
2018-12-26T08:36:49.925Z,12.78
2018-12-26T08:39:30.720Z,13.20
2018-12-26T08:42:11.289Z,12.37
2018-12-26T08:44:51.791Z,13.15
2018-12-26T08:47:32.738Z,11.93
2018-12-26T08:50:13.682Z,11.10
2018-12-26T08:52:55.297Z,10.88
2018-12-26T08:55:36.363Z,12.73
2018-12-26T08:58:19.046Z,13.58
2018-12-26T09:00:59.719Z,9.85
2018-12-26T09:03:40.629Z,11.68
2018-12-26T09:06:21.309Z,12.03
2018-12-26T09:09:01.914Z,11.70
2018-12-26T09:11:42.356Z,11.28
2018-12-26T09:14:22.900Z,11.88
2018-12-26T09:17:03.685Z,10.23
2018-12-26T09:19:44.415Z,12.05
2018-12-26T09:22:24.853Z,12.85
2018-12-26T09:25:05.453Z,12.35
2018-12-26T09:27:46.249Z,12.73
2018-12-26T09:30:27.125Z,11.83
2018-12-26T09:33:07.694Z,11.53
2018-12-26T09:35:48.150Z,11.57
2018-12-26T09:38:28.853Z,11.83
2018-12-26T09:41:09.464Z,10.58
2018-12-26T09:43:50.109Z,10.98
2018-12-26T09:46:30.461Z,11.00
2018-12-26T09:49:11.020Z,10.63
2018-12-26T09:51:51.400Z,11.35
2018-12-26T09:54:31.865Z,10.38
2018-12-26T09:57:12.665Z,10.75
2018-12-26T09:59:52.986Z,11.05
2018-12-26T10:02:33.726Z,11.57
2018-12-26T10:05:14.253Z,12.15
2018-12-26T10:07:55.297Z,11.50
2018-12-26T10:10:36.025Z,13.62
2018-12-26T10:13:16.573Z,12.70
2018-12-26T10:19:10.396Z,10.63
2018-12-26T10:21:50.878Z,10.28
2018-12-26T10:24:31.394Z,11.38
2018-12-26T10:27:11.981Z,11.28
2018-12-26T10:29:52.585Z,9.68
2018-12-26T10:32:33.033Z,11.10
2018-12-26T10:35:13.478Z,10.72
2018-12-26T10:37:54.465Z,11.80
2018-12-26T10:40:34.937Z,12.07
2018-12-26T10:43:15.777Z,11.22
2018-12-26T10:45:56.881Z,11.95
2018-12-26T10:48:37.991Z,13.40
2018-12-26T10:51:18.974Z,13.30
2018-12-26T10:53:59.530Z,13.38
2018-12-26T10:56:40.186Z,13.38
2018-12-26T11:02:19.417Z,12.78
2018-12-26T11:04:59.957Z,12.93
2018-12-26T11:10:53.633Z,14.45
2018-12-26T11:13:34.148Z,13.58
2018-12-26T11:16:15.101Z,14.70
2018-12-26T11:18:55.878Z,13.35
2018-12-26T11:21:36.769Z,14.18
2018-12-26T11:24:17.187Z,15.00
2018-12-26T11:26:58.153Z,14.30
2018-12-26T11:29:38.435Z,14.60
2018-12-26T11:32:19.009Z,12.58
2018-12-26T11:34:59.769Z,14.33
2018-12-26T11:37:40.513Z,15.98
2018-12-26T11:40:21.344Z,15.90
2018-12-26T11:43:01.913Z,15.10
2018-12-26T11:45:42.694Z,13.30
2018-12-26T11:48:23.161Z,14.35
2018-12-26T11:51:03.876Z,13.03
2018-12-26T11:53:44.773Z,13.62
2018-12-26T11:56:25.655Z,12.70
2018-12-26T11:59:06.074Z,14.75
2018-12-26T12:01:46.705Z,17.02
2018-12-26T12:04:27.373Z,12.28
2018-12-26T12:07:07.732Z,14.15
2018-12-26T12:09:48.661Z,13.78
2018-12-26T12:12:29.656Z,13.10
2018-12-26T12:15:10.425Z,12.78
2018-12-26T12:17:51.034Z,13.25
2018-12-26T12:20:31.477Z,14.10
2018-12-26T12:23:11.775Z,14.55
2018-12-26T12:28:51.098Z,13.93
2018-12-26T12:31:31.674Z,14.20
2018-12-26T12:34:12.518Z,14.60
2018-12-26T12:36:53.058Z,13.57
2018-12-26T12:39:34.013Z,14.97
2018-12-26T12:42:14.853Z,13.83
2018-12-26T12:44:55.681Z,13.30
2018-12-26T12:47:36.661Z,14.83
2018-12-26T12:50:17.541Z,13.80
2018-12-26T12:52:58.477Z,13.57
2018-12-26T12:55:39.189Z,14.97
2018-12-26T12:58:20.389Z,13.60
2018-12-26T13:01:01.517Z,14.58
2018-12-26T13:03:46.547Z,15.00
2018-12-26T13:06:24.905Z,15.00
2018-12-26T13:09:05.450Z,15.43
2018-12-26T13:11:46.504Z,15.40
2018-12-26T13:14:26.838Z,15.70
2018-12-26T13:17:07.589Z,14.63
2018-12-26T13:19:48.522Z,15.13
2018-12-26T13:22:29.496Z,14.87
2018-12-26T13:25:10.327Z,15.90
2018-12-26T13:27:51.037Z,15.67
2018-12-26T13:30:31.681Z,15.60
2018-12-26T13:33:12.342Z,15.63
2018-12-26T13:35:53.127Z,14.65
2018-12-26T13:38:33.521Z,14.87
2018-12-26T13:41:14.361Z,15.90
2018-12-26T13:43:55.550Z,16.60
2018-12-26T13:46:36.652Z,16.17
2018-12-26T13:49:17.621Z,16.35
2018-12-26T13:51:58.508Z,15.78
2018-12-26T13:54:39.280Z,15.70
2018-12-26T13:57:20.044Z,16.27
2018-12-26T14:00:02.565Z,15.83
2018-12-26T14:02:43.798Z,15.50
2018-12-26T14:05:24.493Z,14.90
2018-12-26T14:08:05.057Z,16.80
2018-12-26T14:10:45.697Z,16.17
2018-12-26T14:13:26.131Z,17.53
2018-12-26T14:16:06.556Z,16.77
2018-12-26T14:18:47.504Z,17.37
2018-12-26T14:21:28.371Z,15.53
2018-12-26T14:24:09.269Z,15.10
2018-12-26T14:26:50.173Z,15.75
2018-12-26T14:29:30.613Z,15.65
2018-12-26T14:32:11.488Z,16.77
2018-12-26T14:34:52.246Z,14.75
2018-12-26T14:37:33.185Z,14.90
2018-12-26T14:40:13.689Z,15.47
2018-12-26T14:42:55.713Z,15.90
2018-12-26T14:45:36.048Z,16.17
2018-12-26T14:48:16.593Z,15.98
2018-12-26T14:50:57.838Z,15.30
2018-12-26T14:53:38.970Z,16.52
2018-12-26T14:56:19.749Z,15.85
2018-12-26T14:59:00.390Z,16.02
2018-12-26T15:01:40.875Z,16.32
2018-12-26T15:04:21.637Z,16.50
2018-12-26T15:07:02.115Z,16.75
2018-12-26T15:09:42.641Z,23.95
2018-12-26T15:12:23.570Z,21.70
2018-12-26T15:15:04.513Z,20.30
2018-12-26T15:17:45.471Z,24.95
2018-12-26T15:20:26.446Z,18.98
2018-12-26T15:23:07.109Z,20.23
2018-12-26T15:25:47.913Z,19.42
2018-12-26T15:31:40.763Z,18.87
2018-12-26T15:34:21.740Z,18.10
2018-12-26T15:37:02.610Z,22.22
2018-12-26T15:39:43.490Z,26.77
2018-12-26T15:42:24.205Z,28.85
2018-12-26T15:45:05.226Z,32.08
2018-12-26T15:47:45.982Z,24.15
2018-12-26T15:50:27.065Z,26.93
2018-12-26T15:53:08.015Z,29.60
2018-12-26T15:55:49.182Z,34.57
2018-12-26T15:58:30.072Z,33.92
2018-12-26T16:01:10.729Z,27.93
2018-12-26T16:03:51.558Z,25.68
2018-12-26T16:06:32.135Z,25.72
2018-12-26T16:09:12.517Z,28.73
2018-12-26T16:11:53.549Z,30.40
2018-12-26T16:14:34.605Z,35.28
2018-12-26T16:17:15.197Z,39.45
2018-12-26T16:19:56.301Z,29.57
2018-12-26T16:22:37.140Z,33.13
2018-12-26T16:25:17.547Z,31.10
2018-12-26T16:27:58.829Z,30.45
2018-12-26T16:30:46.178Z,29.12
2018-12-26T16:33:21.502Z,28.47
2018-12-26T16:36:02.548Z,28.42
2018-12-26T16:38:43.496Z,30.37
2018-12-26T16:41:24.461Z,33.05
2018-12-26T16:44:05.121Z,30.05
2018-12-26T16:46:46.182Z,26.77
2018-12-26T16:49:27.300Z,27.58
2018-12-26T16:52:07.565Z,28.02
2018-12-26T16:54:48.153Z,26.62
2018-12-26T16:57:29.057Z,27.25
2018-12-26T17:00:09.853Z,24.60
2018-12-26T17:02:50.757Z,25.95
2018-12-26T17:05:31.641Z,22.45
2018-12-26T17:08:12.229Z,21.68
2018-12-26T17:10:52.659Z,19.82
2018-12-26T17:13:33.725Z,17.10
2018-12-26T17:16:14.260Z,17.65
2018-12-26T17:18:42.685Z,16.50
2018-12-26T17:21:11.145Z,15.05
2018-12-26T17:23:39.585Z,14.45
2018-12-26T17:26:07.678Z,12.82
2018-12-26T17:28:35.789Z,13.65
2018-12-26T17:31:04.566Z,14.83
2018-12-26T17:33:33.108Z,14.63
2018-12-26T17:36:01.533Z,14.33
2018-12-26T17:38:29.977Z,14.60
2018-12-26T17:40:58.405Z,14.65
2018-12-26T17:43:26.837Z,17.65
2018-12-26T17:45:55.260Z,16.10
2018-12-26T17:48:23.695Z,14.18
2018-12-26T17:50:52.185Z,13.58
2018-12-26T17:53:26.315Z,12.85
2018-12-26T17:56:00.356Z,12.15
2018-12-26T17:58:32.134Z,13.50
2018-12-26T18:01:13.220Z,13.35
2018-12-26T18:03:41.397Z,14.68
2018-12-26T18:06:09.492Z,13.50
2018-12-26T18:08:38.241Z,13.18
2018-12-26T18:11:06.353Z,12.60
2018-12-26T18:13:34.785Z,13.80
2018-12-26T18:16:03.223Z,12.85
2018-12-26T18:18:31.667Z,12.37
2018-12-26T18:21:00.092Z,13.28
2018-12-26T18:23:28.529Z,14.30
2018-12-26T18:25:56.961Z,12.88
2018-12-26T18:28:25.463Z,13.25
2018-12-26T18:30:53.894Z,13.20
2018-12-26T18:33:22.340Z,13.58
2018-12-26T18:35:50.448Z,13.90
2018-12-26T18:38:19.195Z,12.23
2018-12-26T18:40:47.617Z,13.50
2018-12-26T18:43:16.074Z,13.75
2018-12-26T18:45:44.497Z,15.65
2018-12-26T18:48:12.933Z,16.73
2018-12-26T18:50:41.356Z,16.27
2018-12-26T18:53:09.460Z,14.93
2018-12-26T18:55:37.550Z,15.95
2018-12-26T18:58:05.649Z,15.45
2018-12-26T19:00:34.068Z,16.00
2018-12-26T19:03:02.793Z,18.40
2018-12-26T19:05:31.229Z,18.40
2018-12-26T19:07:59.652Z,18.98
2018-12-26T19:10:28.080Z,18.12
2018-12-26T19:12:56.500Z,18.10
2018-12-26T19:15:25.289Z,19.50
2018-12-26T19:17:53.372Z,22.65
2018-12-26T19:20:21.476Z,20.17
2018-12-26T19:22:49.898Z,22.80
2018-12-26T19:25:18.326Z,22.77
2018-12-26T19:27:46.417Z,21.65
2018-12-26T19:30:14.852Z,22.02
2018-12-26T19:32:43.282Z,20.10
2018-12-26T19:35:12.897Z,23.12
2018-12-26T19:37:41.320Z,23.52
2018-12-26T19:40:29.350Z,22.95
2018-12-26T19:42:57.772Z,23.80
2018-12-26T19:45:26.209Z,24.45
2018-12-26T19:47:54.675Z,22.82
2018-12-26T19:50:23.173Z,22.52
2018-12-26T19:52:51.598Z,22.60
2018-12-26T19:55:20.038Z,23.07
2018-12-26T19:57:48.467Z,21.87
2018-12-26T20:00:16.901Z,21.35
2018-12-26T20:02:45.400Z,21.23
2018-12-26T20:05:13.877Z,20.75
2018-12-26T20:07:42.292Z,21.17
2018-12-26T20:10:11.003Z,20.20
2018-12-26T20:12:39.425Z,20.15
2018-12-26T20:15:07.531Z,20.68
2018-12-26T20:17:35.955Z,19.92
2018-12-26T20:20:06.324Z,19.87
2018-12-26T20:22:34.831Z,20.68
2018-12-26T20:25:03.401Z,19.30
2018-12-26T20:27:31.823Z,19.77
2018-12-26T20:29:59.916Z,20.00
2018-12-26T20:32:28.713Z,20.00
2018-12-26T20:34:57.476Z,19.70
2018-12-26T20:37:25.959Z,19.98
2018-12-26T20:39:54.397Z,20.75
2018-12-26T20:42:22.486Z,21.02
2018-12-26T20:44:51.226Z,20.85
2018-12-26T20:47:19.332Z,21.20
2018-12-26T20:49:47.755Z,20.68
2018-12-26T20:52:16.191Z,21.60
2018-12-26T20:54:44.650Z,22.90
2018-12-26T20:57:13.086Z,23.40
2018-12-26T20:59:41.538Z,21.35
2018-12-26T21:02:10.118Z,21.68
2018-12-26T21:04:38.872Z,21.97
2018-12-26T21:07:07.318Z,26.05
2018-12-26T21:09:35.412Z,23.87
2018-12-26T21:12:03.892Z,22.42
2018-12-26T21:14:32.309Z,22.80
2018-12-26T21:17:00.747Z,23.32
2018-12-26T21:19:28.929Z,22.48
2018-12-26T21:21:57.361Z,21.27
2018-12-26T21:24:25.784Z,22.13
2018-12-26T21:26:54.293Z,22.73
2018-12-26T21:29:22.755Z,22.55
2018-12-26T21:31:51.233Z,21.62
2018-12-26T21:34:19.652Z,20.40
2018-12-26T21:36:48.193Z,19.87
2018-12-26T21:39:16.613Z,21.42
2018-12-26T21:41:45.041Z,22.93
2018-12-26T21:44:13.515Z,21.73
2018-12-26T21:46:41.644Z,21.97
2018-12-26T21:49:10.370Z,22.87
2018-12-26T21:51:38.805Z,21.42
2018-12-26T21:54:06.915Z,22.65
2018-12-26T21:56:35.012Z,22.45
2018-12-26T21:59:03.708Z,21.45
2018-12-26T22:01:32.494Z,24.00
2018-12-26T22:04:01.165Z,23.12
2018-12-26T22:06:29.594Z,23.83
2018-12-26T22:08:58.024Z,24.07
2018-12-26T22:11:26.525Z,24.45
2018-12-26T22:13:55.024Z,22.30
2018-12-26T22:16:23.777Z,24.45
2018-12-26T22:18:52.193Z,24.40
2018-12-26T22:21:20.616Z,25.92
2018-12-26T22:23:49.067Z,26.02
2018-12-26T22:26:17.497Z,24.32
2018-12-26T22:28:45.895Z,21.97
2018-12-26T22:31:14.317Z,22.52
2018-12-26T22:33:42.753Z,22.25
2018-12-26T22:36:11.186Z,23.05
2018-12-26T22:38:39.616Z,21.82
2018-12-26T22:41:08.038Z,21.90
2018-12-26T22:43:36.464Z,21.65
2018-12-26T22:46:04.565Z,21.20
2018-12-26T22:48:32.657Z,21.27
2018-12-26T22:51:00.739Z,22.32
2018-12-26T22:53:29.154Z,22.87
2018-12-26T22:55:57.245Z,24.25
2018-12-26T22:58:25.346Z,25.20
2018-12-26T23:00:53.781Z,22.20
2018-12-26T23:03:22.200Z,23.50
2018-12-26T23:05:50.627Z,22.37
2018-12-26T23:08:19.052Z,24.52
2018-12-26T23:10:47.128Z,24.65
2018-12-26T23:13:15.229Z,24.77
2018-12-26T23:15:43.653Z,26.27
2018-12-26T23:18:31.693Z,27.42
2018-12-26T23:21:19.465Z,27.25
2018-12-26T23:24:07.212Z,25.75
2018-12-26T23:26:55.011Z,24.87
2018-12-26T23:29:42.781Z,25.55
2018-12-26T23:32:30.572Z,25.85
2018-12-26T23:35:18.337Z,26.35
2018-12-26T23:37:59.307Z,26.55
2018-12-26T23:40:39.861Z,28.65
2018-12-26T23:43:21.076Z,25.92
2018-12-26T23:46:02.017Z,26.97
2018-12-26T23:48:42.687Z,27.40
2018-12-26T23:51:23.978Z,23.92
2018-12-26T23:54:04.703Z,27.15
2018-12-26T23:56:45.458Z,28.30
2018-12-26T23:59:26.386Z,29.60
